createdAt,value
2023-01-10T00:00:35.355Z,7.32
2023-01-10T00:03:03.020Z,7.24
2023-01-10T00:05:30.709Z,7.31
2023-01-10T00:07:59.013Z,7.48
2023-01-10T00:10:27.686Z,7.39
2023-01-10T00:13:12.724Z,7.45
2023-01-10T00:15:40.140Z,7.55
2023-01-10T00:18:07.707Z,7.58
2023-01-10T00:20:35.215Z,7.51
2023-01-10T00:23:03.574Z,7.52
2023-01-10T00:25:34.196Z,7.46
2023-01-10T00:28:05.468Z,7.31
2023-01-10T00:30:35.149Z,7.37
2023-01-10T00:33:05.705Z,7.34
2023-01-10T00:35:33.179Z,7.48
2023-01-10T00:38:05.618Z,7.31
2023-01-10T00:40:34.754Z,7.50
2023-01-10T00:43:19.979Z,7.35
2023-01-10T00:45:47.811Z,7.49
2023-01-10T00:48:15.605Z,7.34
2023-01-10T00:50:43.160Z,7.33
2023-01-10T00:53:10.634Z,7.40
2023-01-10T00:55:40.549Z,7.44
2023-01-10T00:58:11.462Z,7.47
2023-01-10T01:00:39.163Z,7.40
2023-01-10T01:03:07.919Z,7.51
2023-01-10T01:05:41.835Z,7.53
2023-01-10T01:08:09.568Z,7.41
2023-01-10T01:10:36.924Z,7.40
2023-01-10T01:13:09.704Z,7.32
2023-01-10T01:15:37.579Z,7.37
2023-01-10T01:18:06.001Z,7.48
2023-01-10T01:20:34.303Z,7.39
2023-01-10T01:23:01.725Z,7.45
2023-01-10T01:25:29.126Z,7.40
2023-01-10T01:27:56.520Z,7.45
2023-01-10T01:30:25.498Z,7.51
2023-01-10T01:32:52.871Z,7.46
2023-01-10T01:35:20.331Z,7.34
2023-01-10T01:37:47.707Z,7.45
2023-01-10T01:40:16.689Z,7.49
2023-01-10T01:42:44.843Z,7.50
2023-01-10T01:45:36.590Z,7.39
2023-01-10T01:48:16.206Z,7.41
2023-01-10T01:50:47.756Z,7.36
2023-01-10T01:53:21.076Z,7.37
2023-01-10T01:55:49.060Z,7.31
2023-01-10T01:58:18.945Z,7.38
2023-01-10T02:00:47.649Z,7.32
2023-01-10T02:03:16.061Z,7.41
2023-01-10T02:05:45.412Z,7.44
2023-01-10T02:08:14.387Z,7.38
2023-01-10T02:10:48.875Z,7.28
2023-01-10T02:13:20.334Z,7.27
2023-01-10T02:15:49.042Z,7.44
2023-01-10T02:18:16.566Z,7.36
2023-01-10T02:20:59.280Z,7.31
2023-01-10T02:23:52.476Z,7.38
2023-01-10T02:26:50.476Z,7.32
2023-01-10T02:29:36.409Z,7.31
2023-01-10T02:32:17.113Z,7.27
2023-01-10T02:35:01.232Z,7.32
2023-01-10T02:37:41.671Z,7.37
2023-01-10T02:40:20.292Z,7.25
2023-01-10T02:42:53.801Z,7.18
2023-01-10T02:45:30.437Z,7.31
2023-01-10T02:47:59.321Z,7.19
2023-01-10T02:50:31.578Z,7.06
2023-01-10T02:53:02.939Z,7.07
2023-01-10T02:55:41.366Z,7.15
2023-01-10T02:58:20.898Z,7.00
2023-01-10T03:00:58.575Z,6.99
2023-01-10T03:03:36.861Z,6.90
2023-01-10T03:06:16.382Z,6.88
2023-01-10T03:08:51.772Z,6.87
2023-01-10T03:11:39.851Z,6.96
2023-01-10T03:14:12.679Z,6.97
2023-01-10T03:16:43.990Z,6.89
2023-01-10T03:19:16.373Z,6.92
2023-01-10T03:21:45.121Z,7.03
2023-01-10T03:24:21.802Z,6.94
2023-01-10T03:26:54.818Z,6.93
2023-01-10T03:29:29.752Z,6.94
2023-01-10T03:32:01.296Z,6.97
2023-01-10T03:34:30.081Z,6.95
2023-01-10T03:37:05.642Z,6.90
2023-01-10T03:39:40.815Z,6.95
2023-01-10T03:42:12.418Z,6.93
2023-01-10T03:44:44.685Z,6.93
2023-01-10T03:47:18.363Z,6.86
2023-01-10T03:49:50.943Z,6.95
2023-01-10T03:52:20.478Z,6.87
2023-01-10T03:54:48.993Z,6.92
2023-01-10T03:57:18.606Z,6.95
2023-01-10T03:59:47.111Z,6.97
2023-01-10T04:02:14.507Z,6.96
2023-01-10T04:04:41.873Z,6.95
2023-01-10T04:07:10.810Z,6.90
2023-01-10T04:09:38.219Z,6.90
2023-01-10T04:12:05.909Z,7.02
2023-01-10T04:14:33.905Z,7.06
2023-01-10T04:17:01.284Z,7.05
2023-01-10T04:19:28.745Z,6.90
2023-01-10T04:21:56.225Z,7.00
2023-01-10T04:24:24.976Z,6.95
2023-01-10T04:26:52.387Z,7.04
2023-01-10T04:29:19.750Z,7.01
2023-01-10T04:31:47.180Z,7.04
2023-01-10T04:34:14.963Z,6.97
2023-01-10T04:36:42.425Z,7.07
2023-01-10T04:39:09.935Z,6.99
2023-01-10T04:41:38.661Z,6.98
2023-01-10T04:44:06.962Z,7.06
2023-01-10T04:46:34.420Z,7.00
2023-01-10T04:49:01.895Z,6.95
2023-01-10T04:51:29.944Z,6.96
2023-01-10T04:53:57.212Z,6.92
2023-01-10T04:56:25.109Z,6.97
2023-01-10T04:58:54.328Z,7.06
2023-01-10T05:01:23.693Z,7.06
2023-01-10T05:03:52.258Z,7.04
2023-01-10T05:06:20.300Z,7.07
2023-01-10T05:08:47.900Z,6.93
2023-01-10T05:11:15.300Z,7.10
2023-01-10T05:13:43.016Z,7.21
2023-01-10T05:16:11.717Z,7.13
2023-01-10T05:18:39.155Z,7.11
2023-01-10T05:21:08.834Z,6.97
2023-01-10T05:23:37.154Z,7.03
2023-01-10T05:26:07.808Z,7.15
2023-01-10T05:28:35.216Z,7.11
2023-01-10T05:31:02.734Z,7.11
2023-01-10T05:33:31.413Z,7.17
2023-01-10T05:35:58.825Z,7.11
2023-01-10T05:38:26.197Z,7.02
2023-01-10T05:40:58.334Z,7.14
2023-01-10T05:43:27.119Z,7.13
2023-01-10T05:45:54.605Z,7.13
2023-01-10T05:48:21.984Z,7.07
2023-01-10T05:50:52.269Z,7.11
2023-01-10T05:53:20.406Z,7.01
2023-01-10T05:55:55.249Z,7.13
2023-01-10T05:58:23.195Z,7.04
2023-01-10T06:00:50.782Z,7.09
2023-01-10T06:03:18.595Z,7.20
2023-01-10T06:05:48.452Z,7.17
2023-01-10T06:08:17.916Z,7.23
2023-01-10T06:10:45.644Z,6.96
2023-01-10T06:13:13.199Z,7.02
2023-01-10T06:15:40.674Z,7.11
2023-01-10T06:18:11.845Z,7.09
2023-01-10T06:20:39.625Z,7.06
2023-01-10T06:23:07.372Z,6.95
2023-01-10T06:25:40.390Z,7.01
2023-01-10T06:28:08.177Z,7.03
2023-01-10T06:30:35.998Z,7.04
2023-01-10T06:33:03.754Z,6.98
2023-01-10T06:35:31.724Z,7.07
2023-01-10T06:37:59.124Z,7.01
2023-01-10T06:40:27.510Z,6.96
2023-01-10T06:42:56.289Z,7.08
2023-01-10T06:45:23.646Z,7.01
2023-01-10T06:47:51.028Z,7.06
2023-01-10T06:50:19.313Z,7.01
2023-01-10T06:52:46.720Z,6.93
2023-01-10T06:55:14.200Z,6.99
2023-01-10T06:57:41.566Z,7.03
2023-01-10T07:00:11.791Z,7.11
2023-01-10T07:02:39.129Z,7.09
2023-01-10T07:05:08.468Z,7.07
2023-01-10T07:07:37.258Z,7.01
2023-01-10T07:10:05.290Z,7.01
2023-01-10T07:12:32.564Z,6.94
2023-01-10T07:14:59.922Z,6.92
2023-01-10T07:17:28.642Z,6.98
2023-01-10T07:19:55.990Z,6.98
2023-01-10T07:22:23.749Z,7.18
2023-01-10T07:24:51.309Z,7.11
2023-01-10T07:27:18.723Z,7.09
2023-01-10T07:29:46.117Z,7.06
2023-01-10T07:32:13.469Z,7.10
2023-01-10T07:34:42.130Z,6.82
2023-01-10T07:37:09.514Z,7.02
2023-01-10T07:39:36.878Z,7.06
2023-01-10T07:42:04.488Z,7.09
2023-01-10T07:44:32.314Z,7.18
2023-01-10T07:46:59.673Z,7.04
2023-01-10T07:49:27.064Z,7.03
2023-01-10T07:51:55.761Z,7.00
2023-01-10T07:54:23.144Z,7.07
2023-01-10T07:56:50.522Z,6.88
2023-01-10T07:59:18.080Z,6.82
2023-01-10T08:01:45.446Z,6.98
2023-01-10T08:04:12.854Z,6.88
2023-01-10T08:06:40.212Z,7.00
2023-01-10T08:09:08.924Z,7.00
2023-01-10T08:11:36.299Z,7.00
2023-01-10T08:14:04.007Z,6.99
2023-01-10T08:16:31.466Z,7.04
2023-01-10T08:18:59.040Z,7.05
2023-01-10T08:21:26.410Z,7.01
2023-01-10T08:23:55.335Z,7.18
2023-01-10T08:26:24.065Z,7.13
2023-01-10T08:28:51.540Z,7.12
2023-01-10T08:31:18.951Z,7.18
2023-01-10T08:33:46.383Z,7.07
2023-01-10T08:36:17.737Z,7.09
2023-01-10T08:38:45.712Z,7.13
2023-01-10T08:41:13.576Z,7.16
2023-01-10T08:43:42.307Z,7.07
2023-01-10T08:46:10.958Z,7.16
2023-01-10T08:48:38.439Z,7.17
2023-01-10T08:51:07.549Z,7.32
2023-01-10T08:53:35.095Z,7.41
2023-01-10T08:56:04.255Z,7.26
2023-01-10T08:58:32.894Z,7.16
2023-01-10T09:01:05.123Z,7.31
2023-01-10T09:03:32.683Z,7.22
2023-01-10T09:06:00.524Z,7.19
2023-01-10T09:08:28.628Z,7.26
2023-01-10T09:10:55.893Z,7.35
2023-01-10T09:13:23.252Z,7.47
2023-01-10T09:15:53.008Z,7.44
2023-01-10T09:18:21.835Z,7.61
2023-01-10T09:20:50.970Z,7.61
2023-01-10T09:23:20.584Z,7.71
2023-01-10T09:25:49.266Z,7.67
2023-01-10T09:28:17.593Z,7.71
2023-01-10T09:30:46.105Z,7.79
2023-01-10T09:33:14.306Z,7.58
2023-01-10T09:35:43.687Z,7.64
2023-01-10T09:38:12.765Z,7.64
2023-01-10T09:40:56.934Z,7.70
2023-01-10T09:43:36.181Z,7.78
2023-01-10T09:46:07.426Z,7.63
2023-01-10T09:48:44.594Z,7.58
2023-01-10T09:51:30.227Z,7.47
2023-01-10T09:54:11.191Z,7.52
2023-01-10T09:56:41.351Z,7.39
2023-01-10T09:59:15.027Z,7.13
2023-01-10T10:01:42.538Z,7.11
2023-01-10T10:04:21.019Z,7.00
2023-01-10T10:06:50.995Z,7.27
2023-01-10T10:09:22.522Z,7.41
2023-01-10T10:12:15.141Z,7.49
2023-01-10T10:14:54.411Z,7.40
2023-01-10T10:17:33.445Z,7.48
2023-01-10T10:20:21.435Z,7.45
2023-01-10T10:23:04.267Z,7.55
2023-01-10T10:25:53.331Z,7.73
2023-01-10T10:28:54.615Z,7.52
2023-01-10T10:31:34.894Z,7.69
2023-01-10T10:34:12.069Z,7.74
2023-01-10T10:36:44.813Z,7.59
2023-01-10T10:39:18.721Z,7.71
2023-01-10T10:41:49.278Z,7.82
2023-01-10T10:44:33.356Z,7.79
2023-01-10T10:47:01.374Z,7.58
2023-01-10T10:49:36.087Z,7.76
2023-01-10T10:52:09.081Z,7.72
2023-01-10T10:54:38.085Z,7.80
2023-01-10T10:57:05.514Z,7.89
2023-01-10T10:59:32.932Z,7.83
2023-01-10T11:02:00.660Z,7.85
2023-01-10T11:04:29.156Z,8.02
2023-01-10T11:06:56.644Z,8.06
2023-01-10T11:09:28.745Z,8.08
2023-01-10T11:11:59.260Z,8.09
2023-01-10T11:14:45.987Z,8.11
2023-01-10T11:17:21.069Z,7.97
2023-01-10T11:19:57.745Z,7.90
2023-01-10T11:22:26.330Z,8.05
2023-01-10T11:24:56.451Z,8.19
2023-01-10T11:27:28.115Z,8.09
2023-01-10T11:29:59.046Z,8.04
2023-01-10T11:32:33.969Z,7.98
2023-01-10T11:35:03.495Z,8.15
2023-01-10T11:37:33.272Z,8.17
2023-01-10T11:40:16.374Z,8.24
2023-01-10T11:42:45.393Z,8.31
2023-01-10T11:45:38.032Z,8.27
2023-01-10T11:48:10.089Z,8.36
2023-01-10T11:50:42.058Z,8.29
2023-01-10T11:53:32.918Z,8.51
2023-01-10T11:56:00.851Z,8.48
2023-01-10T11:58:33.627Z,8.48
2023-01-10T12:01:01.607Z,8.49
2023-01-10T12:03:30.723Z,8.60
2023-01-10T12:06:00.731Z,8.64
2023-01-10T12:08:32.045Z,8.64
2023-01-10T12:11:02.668Z,8.69
2023-01-10T12:13:43.325Z,8.64
2023-01-10T12:16:20.107Z,8.80
2023-01-10T12:18:48.002Z,8.83
2023-01-10T12:21:18.180Z,8.83
2023-01-10T12:23:49.635Z,8.78
2023-01-10T12:26:17.431Z,8.91
2023-01-10T12:28:51.550Z,8.75
2023-01-10T12:31:20.834Z,8.78
2023-01-10T12:33:56.558Z,8.86
2023-01-10T12:36:35.366Z,8.89
2023-01-10T12:39:14.320Z,8.85
2023-01-10T12:42:10.362Z,9.02
2023-01-10T12:44:42.023Z,9.09
2023-01-10T12:47:20.467Z,9.19
2023-01-10T12:49:55.321Z,9.07
2023-01-10T12:52:31.915Z,8.90
2023-01-10T12:54:59.690Z,8.78
2023-01-10T12:57:32.808Z,8.81
2023-01-10T13:00:04.638Z,8.77
2023-01-10T13:02:40.575Z,8.87
2023-01-10T13:05:17.441Z,8.73
2023-01-10T13:07:46.866Z,8.63
2023-01-10T13:10:18.160Z,8.53
2023-01-10T13:12:51.630Z,8.67
2023-01-10T13:15:24.393Z,8.68
2023-01-10T13:17:58.498Z,8.73
2023-01-10T13:20:37.004Z,8.71
2023-01-10T13:23:16.099Z,8.69
2023-01-10T13:25:56.087Z,8.60
2023-01-10T13:28:26.998Z,8.61
2023-01-10T13:30:58.079Z,8.57
2023-01-10T13:33:27.613Z,8.62
2023-01-10T13:35:58.491Z,8.75
2023-01-10T13:38:32.082Z,8.62
2023-01-10T13:41:02.790Z,8.73
2023-01-10T13:43:39.003Z,8.63
2023-01-10T13:46:46.147Z,8.55
2023-01-10T13:49:42.837Z,8.57
2023-01-10T13:52:37.102Z,8.52
2023-01-10T13:55:35.107Z,8.70
2023-01-10T13:58:04.676Z,8.61
2023-01-10T14:01:05.003Z,8.52
2023-01-10T14:03:57.845Z,8.45
2023-01-10T14:06:41.089Z,8.43
2023-01-10T14:09:42.327Z,8.50
2023-01-10T14:12:20.485Z,8.53
2023-01-10T14:14:54.791Z,8.54
2023-01-10T14:17:24.842Z,8.46
2023-01-10T14:20:03.520Z,8.52
2023-01-10T14:22:33.156Z,8.47
2023-01-10T14:25:02.314Z,8.35
2023-01-10T14:27:43.663Z,8.35
2023-01-10T14:30:17.773Z,8.32
2023-01-10T14:32:50.970Z,8.44
2023-01-10T14:35:23.166Z,8.26
2023-01-10T14:37:55.464Z,8.26
2023-01-10T14:40:28.154Z,8.35
2023-01-10T14:42:59.936Z,8.28
2023-01-10T14:45:34.466Z,8.08
2023-01-10T14:48:19.049Z,8.21
2023-01-10T14:50:47.766Z,8.21
2023-01-10T14:53:26.323Z,8.32
2023-01-10T14:55:53.747Z,8.21
2023-01-10T14:58:22.664Z,8.07
2023-01-10T15:00:51.565Z,8.27
2023-01-10T15:03:20.726Z,8.11
2023-01-10T15:05:51.446Z,8.07
2023-01-10T15:08:23.125Z,8.02
2023-01-10T15:10:53.112Z,8.05
2023-01-10T15:13:24.704Z,8.00
2023-01-10T15:15:52.558Z,8.09
2023-01-10T15:18:33.249Z,8.06
2023-01-10T15:21:02.123Z,8.14
2023-01-10T15:23:35.693Z,8.24
2023-01-10T15:26:05.892Z,8.16
2023-01-10T15:28:35.794Z,8.05
2023-01-10T15:31:05.598Z,7.88
2023-01-10T15:33:35.688Z,7.98
2023-01-10T15:36:14.911Z,7.94
2023-01-10T15:38:45.620Z,7.90
2023-01-10T15:41:19.832Z,7.92
2023-01-10T15:43:49.939Z,7.95
2023-01-10T15:46:22.034Z,7.97
2023-01-10T15:48:58.860Z,7.96
2023-01-10T15:51:30.132Z,7.97
2023-01-10T15:54:03.486Z,7.93
2023-01-10T15:56:35.758Z,7.88
2023-01-10T15:59:03.919Z,7.92
2023-01-10T16:01:32.778Z,7.91
2023-01-10T16:04:02.591Z,7.82
2023-01-10T16:06:34.594Z,7.84
2023-01-10T16:09:09.103Z,7.80
2023-01-10T16:11:59.504Z,7.79
2023-01-10T16:14:27.069Z,7.77
2023-01-10T16:16:54.443Z,7.79
2023-01-10T16:19:21.820Z,7.73
2023-01-10T16:21:57.566Z,7.78
2023-01-10T16:24:27.751Z,7.75
2023-01-10T16:26:56.484Z,7.66
2023-01-10T16:29:24.651Z,7.67
2023-01-10T16:31:53.292Z,7.69
2023-01-10T16:34:21.102Z,7.65
2023-01-10T16:36:49.804Z,7.63
2023-01-10T16:39:19.530Z,7.63
2023-01-10T16:42:04.905Z,7.67
2023-01-10T16:44:33.554Z,7.47
2023-01-10T16:47:07.058Z,7.47
2023-01-10T16:49:34.811Z,7.65
2023-01-10T16:52:03.626Z,7.74
2023-01-10T16:54:31.180Z,8.19
2023-01-10T16:56:58.519Z,8.51
2023-01-10T16:59:25.914Z,8.76
2023-01-10T17:01:56.398Z,8.73
2023-01-10T17:04:27.155Z,8.97
2023-01-10T17:06:56.545Z,8.59
2023-01-10T17:09:27.729Z,8.44
2023-01-10T17:12:01.791Z,8.60
2023-01-10T17:14:29.807Z,8.69
2023-01-10T17:16:57.196Z,8.68
2023-01-10T17:19:25.254Z,8.86
2023-01-10T17:21:53.159Z,8.95
2023-01-10T17:24:20.856Z,8.85
2023-01-10T17:26:49.535Z,8.76
2023-01-10T17:29:16.946Z,8.49
2023-01-10T17:31:44.339Z,8.52
2023-01-10T17:34:11.826Z,8.28
2023-01-10T17:36:39.871Z,8.36
2023-01-10T17:39:07.919Z,8.13
2023-01-10T17:41:35.260Z,7.79
2023-01-10T17:44:04.047Z,7.86
2023-01-10T17:46:31.446Z,7.82
2023-01-10T17:48:59.126Z,8.11
2023-01-10T17:51:28.814Z,8.00
2023-01-10T17:53:56.849Z,7.97
2023-01-10T17:56:24.491Z,7.88
2023-01-10T17:58:52.987Z,7.94
2023-01-10T18:01:25.369Z,8.02
2023-01-10T18:03:53.302Z,8.09
2023-01-10T18:06:25.569Z,7.95
2023-01-10T18:08:53.427Z,8.05
2023-01-10T18:11:20.970Z,8.20
2023-01-10T18:13:48.393Z,8.01
2023-01-10T18:16:15.785Z,7.63
2023-01-10T18:18:44.484Z,7.55
2023-01-10T18:21:13.959Z,7.77
2023-01-10T18:23:41.463Z,7.82
2023-01-10T18:26:11.168Z,8.02
2023-01-10T18:28:42.146Z,8.08
2023-01-10T18:31:12.672Z,7.96
2023-01-10T18:33:40.760Z,7.97
2023-01-10T18:36:14.159Z,7.94
2023-01-10T18:38:41.563Z,7.80
2023-01-10T18:41:08.962Z,7.88
2023-01-10T18:43:36.343Z,7.93
2023-01-10T18:46:05.865Z,7.98
2023-01-10T18:48:33.619Z,7.79
2023-01-10T18:51:02.562Z,7.87
2023-01-10T18:53:31.565Z,7.47
2023-01-10T18:56:00.518Z,7.44
2023-01-10T18:58:29.486Z,7.60
2023-01-10T19:00:56.951Z,7.47
2023-01-10T19:03:24.564Z,7.36
2023-01-10T19:05:51.960Z,7.51
2023-01-10T19:08:19.345Z,7.07
2023-01-10T19:11:11.805Z,6.93
2023-01-10T19:13:36.533Z,6.79
2023-01-10T19:16:12.016Z,6.73
2023-01-10T19:18:39.575Z,6.41
2023-01-10T19:21:08.764Z,6.26
2023-01-10T19:23:36.198Z,6.48
2023-01-10T19:26:05.033Z,6.41
2023-01-10T19:28:32.393Z,6.55
2023-01-10T19:31:04.584Z,6.45
2023-01-10T19:33:34.213Z,6.55
2023-01-10T19:36:05.684Z,6.20
2023-01-10T19:38:33.094Z,6.12
2023-01-10T19:41:00.478Z,6.01
2023-01-10T19:43:29.930Z,6.20
2023-01-10T19:45:57.371Z,6.15
2023-01-10T19:48:25.158Z,5.97
2023-01-10T19:50:52.669Z,5.68
2023-01-10T19:53:23.807Z,5.56
2023-01-10T19:56:00.313Z,5.49
2023-01-10T19:58:29.092Z,5.21
2023-01-10T20:00:56.540Z,5.17
2023-01-10T20:03:24.213Z,5.43
2023-01-10T20:05:51.836Z,5.64
2023-01-10T20:08:19.370Z,5.85
2023-01-10T20:10:46.989Z,5.80
2023-01-10T20:13:14.391Z,5.73
2023-01-10T20:15:43.918Z,5.73
2023-01-10T20:18:11.389Z,5.69
2023-01-10T20:20:41.388Z,5.59
2023-01-10T20:23:11.354Z,5.65
2023-01-10T20:25:38.746Z,5.25
2023-01-10T20:28:06.399Z,5.27
2023-01-10T20:30:33.762Z,5.36
2023-01-10T20:33:02.458Z,5.30
2023-01-10T20:35:29.855Z,5.08
2023-01-10T20:37:57.247Z,4.92
2023-01-10T20:40:25.989Z,4.74
2023-01-10T20:42:53.357Z,4.85
2023-01-10T20:45:20.759Z,4.67
2023-01-10T20:47:50.625Z,4.94
2023-01-10T20:50:20.570Z,5.13
2023-01-10T20:52:47.983Z,5.19
2023-01-10T20:55:19.675Z,5.16
2023-01-10T20:57:47.109Z,4.98
2023-01-10T21:00:17.346Z,4.82
2023-01-10T21:02:45.103Z,4.92
2023-01-10T21:05:12.530Z,5.00
2023-01-10T21:07:41.216Z,4.95
2023-01-10T21:10:09.904Z,5.00
2023-01-10T21:12:37.283Z,4.67
2023-01-10T21:15:05.355Z,4.60
2023-01-10T21:17:32.727Z,4.80
2023-01-10T21:20:00.145Z,4.75
2023-01-10T21:22:31.320Z,4.68
2023-01-10T21:25:00.115Z,4.49
2023-01-10T21:27:30.735Z,4.37
2023-01-10T21:29:58.524Z,4.45
2023-01-10T21:32:26.156Z,4.47
2023-01-10T21:34:53.513Z,4.38
2023-01-10T21:37:20.928Z,4.47
2023-01-10T21:39:48.345Z,4.14
2023-01-10T21:42:35.165Z,4.25
2023-01-10T21:45:03.585Z,4.30
2023-01-10T21:47:31.040Z,4.28
2023-01-10T21:49:58.420Z,4.21
2023-01-10T21:52:25.796Z,4.26
2023-01-10T21:54:53.234Z,4.29
2023-01-10T21:57:23.405Z,4.28
2023-01-10T21:59:51.297Z,3.86
2023-01-10T22:02:21.079Z,3.75
2023-01-10T22:04:50.608Z,3.83
2023-01-10T22:07:18.796Z,3.98
2023-01-10T22:09:46.350Z,3.95
2023-01-10T22:12:13.728Z,3.83
2023-01-10T22:14:42.419Z,3.97
2023-01-10T22:17:09.808Z,3.85
2023-01-10T22:19:37.173Z,3.76
2023-01-10T22:22:04.962Z,3.96
2023-01-10T22:24:32.599Z,3.98
2023-01-10T22:27:00.295Z,3.94
2023-01-10T22:29:28.330Z,4.02
2023-01-10T22:31:56.951Z,4.01
2023-01-10T22:34:24.428Z,3.89
2023-01-10T22:36:51.858Z,4.02
2023-01-10T22:39:19.270Z,4.06
2023-01-10T22:41:46.630Z,4.07
2023-01-10T22:44:18.974Z,4.07
2023-01-10T22:46:46.472Z,4.19
2023-01-10T22:49:15.611Z,4.19
2023-01-10T22:51:43.073Z,4.17
2023-01-10T22:54:13.101Z,4.21
2023-01-10T22:56:40.476Z,4.18
2023-01-10T22:59:07.829Z,4.17
2023-01-10T23:01:35.299Z,4.18
2023-01-10T23:04:02.979Z,4.12
2023-01-10T23:06:31.893Z,4.10
2023-01-10T23:08:59.870Z,3.94
2023-01-10T23:11:27.418Z,4.00
2023-01-10T23:13:54.822Z,3.84
2023-01-10T23:16:28.396Z,3.66
2023-01-10T23:18:57.303Z,3.58
2023-01-10T23:21:25.298Z,3.40
2023-01-10T23:23:53.860Z,3.51
2023-01-10T23:26:21.232Z,3.53
2023-01-10T23:28:50.596Z,3.58
2023-01-10T23:31:20.417Z,3.61
2023-01-10T23:33:48.873Z,3.61
2023-01-10T23:36:17.039Z,3.61
2023-01-10T23:38:44.481Z,3.59
2023-01-10T23:41:13.274Z,3.59
2023-01-10T23:43:40.696Z,3.58
2023-01-10T23:46:08.323Z,3.65
2023-01-10T23:48:35.938Z,3.50
2023-01-10T23:51:03.408Z,3.50
2023-01-10T23:53:30.740Z,3.42
2023-01-10T23:55:58.260Z,3.29
2023-01-10T23:58:26.928Z,3.55
